Cisco Butte, California Weather observations

Data are for observation ending at time listed.
 Day   Time    Ave.   Ave.  Ave.  Vector   Max.   Stn.    Total    Solar   Ave.   Snow 
  of    of     Air    Rel.  Wind   Wind    Wind   Baro.  Precip.   Rad.    Soil   Depth
Year   Day     Temp.  Hum.  Speed  Dir.    Gust   Pres.                    Temp.       
2015   (PST)    F      %     mph   deg.    mph     mb.     in.     W/m2     F      in. 
---------------------------------------------------------------------------------------  
  63   21:50   32.8    56    9.9   108     13.9   828.0    0.00       0    999.0  159.6
  63   22:00   32.6    57   10.5   110     13.4   828.0    0.00       0    999.0  159.6
  63   22:10   32.4    57   10.0   106     14.0   828.0    0.00       0    999.0  159.6
  63   22:20   32.2    56   11.3   102     14.7   828.0    0.00       0    999.0  159.6
  63   22:30   31.8    56   12.0   100     17.9   828.0    0.00       0    999.0  159.6
  63   22:40   32.8    51   12.9    99     17.2   828.0    0.00       0    999.0  159.6
  63   22:50   31.4    54   11.0   110     13.7   828.0    0.00       0    999.0  159.6
  63   23:00   32.0    51   11.1   104     16.5   828.0    0.00       0    999.0  159.6
  63   23:10   32.2    49   11.0   105     15.2   828.0    0.00       0    999.0  159.6
  63   23:20   32.1    49   11.2   104     14.8   828.0    0.00       0    999.0  159.6
  63   23:30   31.8    49   10.6   105     14.8   828.0    0.00       0    999.0  159.6
  63   23:40   31.7    49   11.3   102     16.1   828.0    0.00       0    999.0  159.6
  63   23:50   31.8    48   11.2   102     14.3   828.0    0.00       0    999.0  159.6
  64    0:00   31.6    49   10.4   103     13.9   828.0    0.00       0    999.0  159.6
  64    0:10   31.4    48    9.7   108     12.5   828.0    0.00       0    999.0  159.6
  64    0:20   31.6    47   10.0    98     13.8   828.0    0.00       0    999.0  159.6
  64    0:30   31.2    49   10.1   103     12.5   828.0    0.00       0    999.0  159.6
  64    0:40   30.9    49   10.1   106     13.4   828.0    0.00       0    999.0  159.6
  64    0:50   31.2    48   10.6   105     14.2   828.0    0.00       0    999.0  159.6
  64    1:00   31.0    48    9.9   104     13.4   828.0    0.00       0    999.0  159.6
  64    1:10   31.1    47   10.5   107     15.2   828.0    0.00       0    999.0  159.6
  64    1:20   30.9    48    9.9   109     13.8   828.0    0.00       0    999.0  159.6
  64    1:30   31.0    47   10.1   108     14.0   828.0    0.00       0    999.0  159.6
  64    1:40   30.8    48    9.8   105     12.9   828.0    0.00       0    999.0  159.6
  64    1:50   30.3    49   10.2   106     12.8   828.0    0.00       0    999.0  159.6
  64    2:00   30.1    49   10.4   109     13.2   828.0    0.00       0    999.0  159.6
  64    2:10   30.5    48   10.5   105     13.3   828.0    0.00       0    999.0  159.6
  64    2:20   30.8    48   10.2   104     12.9   828.0    0.00       0    999.0  159.6
  64    2:30   30.8    47   10.4   107     14.2   828.0    0.00       0    999.0  159.6
  64    2:40   30.6    48   10.3   107     13.6   828.0    0.00       0    999.0  159.6
  64    2:50   30.4    48   10.1   107     14.1   828.0    0.00       0    999.0  159.6
  64    3:00   30.5    48   10.4   108     14.6   828.0    0.00       0    999.0  159.6
  64    3:10   30.2    48   10.0   105     12.9   828.0    0.00       0    999.0  159.6
  64    3:20   30.0    48   10.9   106     14.0   828.0    0.00       0    999.0  159.6
  64    3:30   29.9    48   10.7   107     14.4   828.0    0.00       0    999.0  159.6
  64    3:40   29.5    49   10.5   109     13.8   828.0    0.00       0    999.0  159.6
  64    3:50   29.5    49   11.8   106     15.6   828.0    0.00       0    999.0  159.6
  64    4:00   29.3    49   11.1   109     14.4   828.0    0.00       0    999.0  159.6
  64    4:10   29.8    47   11.1   107     15.5   828.0    0.00       0    999.0  159.6
  64    4:20   29.9    46   10.9   109     13.4   828.0    0.00       0    999.0  159.6
  64    4:30   29.7    47   11.6   111     14.6   828.0    0.00       0    999.0  159.6
  64    4:40   29.9    47   11.5   104     15.4   828.0    0.00       0    999.0  159.6
  64    4:50   30.3    46   11.8   104     15.3   828.0    0.00       0    999.0  159.6
  64    5:00   30.4    46   11.3   104     14.8   828.0    0.00       0    999.0  159.6
  64    5:10   30.4    45   10.8   106     13.9   829.0    0.00       0    999.0  159.6
  64    5:20   30.4    45   11.3   109     14.2   829.0    0.00       0    999.0  159.6
  64    5:30   30.3    45   11.7   108     16.0   829.0    0.00       0    999.0  159.6
  64    5:40   30.2    45   11.0   107     14.8   829.0    0.00       0    999.0  159.6
  64    5:50   30.7    42   10.7   107     13.8   829.0    0.00       0    999.0  159.6
  64    6:00   31.1    40   10.9   107     13.9   829.0    0.00       0    999.0  159.6
  64    6:10   30.9    40   11.4   110     15.1   829.0    0.00       0    999.0  159.6
  64    6:20   30.3    42   11.0   108     14.2   829.0    0.00       0    999.0  159.6
  64    6:30   30.3    41    9.9   107     13.0   829.0    0.00       1    999.0  159.6
  64    6:40   30.5    40    8.9   104     12.5   829.0    0.00       4    999.0  159.6
  64    6:50   30.5    41    8.9   107     12.6   830.0    0.00      17    999.0  159.6
  64    7:00   30.7    40    8.3   112     11.9   830.0    0.00      31    999.0  159.6
  64    7:10   31.7    38    9.1   114     13.7   830.0    0.00      44    999.0  159.6
  64    7:20   32.4    36    9.6   106     14.7   830.0    0.00      60    999.0  159.6
  64    7:30   33.0    35   10.5   107     14.5   830.0    0.00      77    999.0  159.6
  64    7:40   33.4    34   10.8   103     14.9   830.0    0.00      96    999.0  159.6
  64    7:50   34.1    34    9.5   102     13.4   830.0    0.00     115    999.0  159.6
  64    8:00   35.4    31    9.2   106     13.1   830.0    0.00     137    999.0  159.6
  64    8:10   36.3    31    6.8   115     10.3   831.0    0.00     158    999.0  159.6
  64    8:20   37.2    29    8.3   115     12.3   831.0    0.00     181    999.0  159.6
  64    8:30   38.0    28    8.0   109     11.8   831.0    0.00     203    999.0  159.6
  64    8:40   39.5    26    7.0   108     10.4   831.0    0.00     227    999.0  159.6
  64    8:50   40.5    26    6.6   108      9.2   831.0    0.00     253    999.0  159.6
  64    9:00   41.8    24    5.3   102      8.2   831.0    0.00     275    999.0  159.5
  64    9:10   43.7    22    3.7   105      5.2   831.0    0.00     297    999.0  159.5
  64    9:20   44.8    21    3.6   105      5.9   831.0    0.00     318    999.0  159.5
  64    9:30   45.6    22    3.8   112      5.8   831.0    0.00     339    999.0  159.5
  64    9:40   47.1    20    2.7   151      5.9   831.0    0.00     358    999.0  159.5
  64    9:50   48.4    20    2.7   136      8.3   831.0    0.00     377    999.0  159.5
  64   10:00   47.1    14    4.9   150      9.3   831.0    0.00     395    999.0  159.5
  64   10:10   46.8    14    5.0   160      9.1   831.0    0.00     411    999.0  159.5
  64   10:20   48.3    14    3.4   183      8.8   831.0    0.00     427    999.0  159.5
  64   10:30   48.1    14    3.4   172      8.8   831.0    0.00     440    999.0  159.5
  64   10:40   47.9    15    3.7   136      9.3   831.0    0.00     453    999.0  159.5
  64   10:50   49.3    15    3.4   170      8.2   831.0    0.00     465    999.0  159.5
  64   11:00   48.1    16    4.5   168      8.8   831.0    0.00     475    999.0  159.5
  64   11:10   47.8    15    3.3   136      7.9   831.0    0.00     485    999.0  159.5
  64   11:20   48.2    17    4.5   161      9.7   831.0    0.00     492    999.0  159.5
  64   11:30   50.9    15    3.2   226      7.8   831.0    0.00     500    999.0  159.5
  64   11:40   50.6    14    3.7   208      8.4   831.0    0.00     506    999.0  159.5
  64   11:50   49.5    16    3.2   170      9.0   831.0    0.00     510    999.0  159.5
  64   12:00   49.0    16    4.1   153      8.1   831.0    0.00     513    999.0  159.5
  64   12:10   48.3    16    4.3   169      8.5   831.0    0.00     515    999.0  159.5
  64   12:20   48.7    16    4.2   148      8.8   831.0    0.00     516    999.0  159.5
  64   12:30   48.5    15    3.6   142      8.3   831.0    0.00     515    999.0  159.5
  64   12:40   49.8    15    3.4   217      8.0   831.0    0.00     514    999.0  159.5
  64   12:50   50.0    16    2.6   182      8.3   831.0    0.00     510    999.0  159.5
  64   13:00   50.0    15    3.6   174      6.6   831.0    0.00     505    999.0  159.5
  64   13:10   50.2    17    4.5   211      9.2   831.0    0.00     500    999.0  159.5
  64   13:20   49.9    17    3.9   154      9.0   831.0    0.00     492    999.0  159.5
  64   13:30   49.2    17    5.1   156     10.2   831.0    0.00     483    999.0  159.5
  64   13:40   48.7    17    4.2   150      8.3   831.0    0.00     473    999.0  159.5
  64   13:50   50.2    17    4.9   219     11.2   831.0    0.00     463    999.0  159.5
  64   14:00   49.9    16    3.7   179     10.2   831.0    0.00     451    999.0  159.5
  64   14:10   49.3    16    4.0   158      7.9   831.0    0.00     438    999.0  159.5
  64   14:20   50.2    18    4.4   176      8.6   831.0    0.00     424    999.0  159.5
  64   14:30   49.3    18    3.8   183      8.0   831.0    0.00     407    999.0  159.5
  64   14:40   50.2    19    5.1   233      9.3   831.0    0.00     391    999.0  159.5
  64   14:50   51.5    19    4.4   237      9.6   831.0    0.00     369    999.0  159.5
  64   15:00   51.0    21    5.3   240     10.4   831.0    0.00     356    999.0  159.5
  64   15:10   50.5    22    9.2   274     14.6   831.0    0.00     330    999.0  159.5
  64   15:20   50.5    22    8.0   263     14.7   831.0    0.00     315    999.0  159.5
  64   15:30   51.3    22    6.5   260     11.0   831.0    0.00     293    999.0  159.5
  64   15:40   52.2    22    6.6   254     11.3   831.0    0.00     275    999.0  159.5
  64   15:50   52.0    23    7.9   270     11.4   831.0    0.00     254    999.0  159.5
  64   16:00   51.0    24    8.3   267     11.5   831.0    0.00     230    999.0  159.5
  64   16:10   50.3    25    8.5   270     12.1   831.0    0.00     203    999.0  159.5
  64   16:20   50.2    26    8.4   275     13.1   831.0    0.00     186    999.0  159.5
  64   16:30   49.6    27    8.6   280     12.9   831.0    0.00     163    999.0  159.5
  64   16:40   48.8    28    8.6   282     12.9   831.0    0.00     141    999.0  159.5
  64   16:50   48.3    30    8.6   282     12.1   831.0    0.00     119    999.0  159.4
  64   17:00   48.5    31    8.7   278     11.8   831.0    0.00      99    999.0  159.5
  64   17:10   48.2    32    7.8   282     10.4   831.0    0.00      79    999.0  159.5
  64   17:20   47.8    34    7.2   279     10.8   831.0    0.00      61    999.0  159.5
  64   17:30   47.5    36    5.5   275      8.7   831.0    0.00      45    999.0  159.5
  64   17:40   47.0    36    5.5   275      7.5   831.0    0.00      25    999.0  159.4
  64   17:50   46.0    38    5.3   276      7.4   831.0    0.00       9    999.0  159.1
  64   18:00   44.9    40    3.9   274      5.6   831.0    0.00       8    999.0  159.1
  64   18:10   43.7    42    1.8   280      3.6   831.0    0.00       3    999.0   95.3
  64   18:20   42.8    43    1.3   280      2.0   831.0    0.00       1    999.0   80.3
  64   18:30   42.2    44    1.4   275      2.0   831.0    0.00       0    999.0    1.5
  64   18:40   41.6    44    1.7   275      2.0   831.0    0.00       0    999.0    1.5
  64   18:50   42.0    43    0.4   288      1.8   831.0    0.00       0    999.0    1.7
  64   19:00   41.9    44    1.6    76      2.8   831.0    0.00       0    999.0    1.6
  64   19:10   41.8    44    2.4    84      2.9   831.0    0.00       0    999.0    1.5
  64   19:20   40.2    48    3.8    94      6.2   831.0    0.00       0    999.0    1.5
  64   19:30   38.3    51    7.3   111     11.3   831.0    0.00       0    999.0    1.2
  64   19:40   37.8    50    9.6   113     14.9   831.0    0.00       0    999.0   79.9
  64   19:50   37.7    50    9.2   117     13.4   831.0    0.00       0    999.0   96.9
  64   20:00   36.6    52    8.8   114     12.2   831.0    0.00       0    999.0   16.1
  64   20:10   36.5    52    8.8   111     12.6   831.0    0.00       0    999.0    1.5
  64   20:20   36.7    50    9.5   108     13.2   831.0    0.00       0    999.0  112.7
  64   20:30   36.4    50    9.8   111     13.2   832.0    0.00       0    999.0  111.8
  64   20:40   36.3    50    9.9   115     13.7   832.0    0.00       0    999.0  143.4
  64   20:50   36.0    50   10.6   111     14.4   832.0    0.00       0    999.0  143.5
  64   21:00   36.3    48    9.8   110     13.5   832.0    0.00       0    999.0  159.3
  64   21:10   36.2    47    9.2   111     12.7   832.0    0.00       0    999.0  159.1
  64   21:20   36.0    47   10.0   112     13.5   832.0    0.00       0    999.0  159.1
  64   21:30   36.3    46   11.0   110     13.6   832.0    0.00       0    999.0  143.3
  64   21:40   36.3    46   10.8   105     14.1   832.0    0.00       0    999.0   95.8

Return to Cisco Butte graphs page.


Western Regional Climate Center,wrcc@dri.edu